Time;durP1;ratioP1;P1;durP2;ratioP2;P2;SDS_P1;SDS_P2;PMS_P1;PMS_P2;Temp;Humidity;BMP_temperature;BMP_pressure;BME280_temperature;BME280_humidity;BME280_pressure;Samples;Min_cycle;Max_cycle;Signal;HPM_P1;HPM_P2
2023/07/27 00:00:11;;;;;;;9.45;2.70;;;19.30;99.90;;;;;;5072979;28;20047;-53
2023/07/27 00:03:15;;;;;;;12.02;3.15;;;19.30;99.90;;;;;;5072489;28;20044;-52
2023/07/27 00:06:19;;;;;;;9.40;2.70;;;19.20;99.90;;;;;;5072863;28;20051;-52
2023/07/27 00:09:24;;;;;;;9.25;3.53;;;19.20;99.90;;;;;;5072560;28;20048;-52
2023/07/27 00:12:28;;;;;;;7.65;2.33;;;19.10;99.90;;;;;;5072647;28;20526;-54
2023/07/27 00:15:32;;;;;;;4.70;1.95;;;19.00;99.90;;;;;;5071535;28;20063;-52
2023/07/27 00:18:36;;;;;;;4.38;1.90;;;19.00;99.90;;;;;;5072836;28;20052;-52
2023/07/27 00:21:40;;;;;;;8.00;2.05;;;19.00;99.90;;;;;;5072046;28;20410;-54
2023/07/27 00:24:44;;;;;;;6.78;2.03;;;18.90;99.90;;;;;;5071987;28;20506;-53
2023/07/27 00:27:48;;;;;;;9.15;1.83;;;18.90;99.90;;;;;;5072148;28;20039;-55
2023/07/27 00:30:53;;;;;;;3.97;1.85;;;18.90;99.90;;;;;;5072164;28;20044;-56
2023/07/27 00:33:57;;;;;;;5.35;2.03;;;18.90;99.90;;;;;;5071827;28;20090;-53
2023/07/27 00:37:01;;;;;;;5.20;2.10;;;18.90;99.90;;;;;;5072398;28;20055;-52
2023/07/27 00:40:07;;;;;;;5.90;1.83;;;18.90;99.90;;;;;;5059886;28;20056;-52
2023/07/27 00:43:10;;;;;;;7.40;2.35;;;18.90;99.90;;;;;;5071583;28;20296;-52
2023/07/27 00:46:15;;;;;;;7.68;2.60;;;18.90;99.90;;;;;;5059451;28;20051;-52
2023/07/27 00:49:19;;;;;;;7.03;1.98;;;18.90;99.90;;;;;;5059444;28;20040;-52
2023/07/27 00:52:23;;;;;;;8.45;2.78;;;18.80;99.90;;;;;;5071657;28;20047;-52
2023/07/27 00:55:27;;;;;;;10.93;2.45;;;18.80;99.90;;;;;;5071158;28;20044;-52
2023/07/27 00:58:32;;;;;;;11.50;2.35;;;18.70;99.90;;;;;;5071779;28;20059;-52
2023/07/27 01:01:37;;;;;;;9.00;2.42;;;18.70;99.90;;;;;;5070558;28;20195;-54
2023/07/27 01:04:42;;;;;;;5.57;2.10;;;18.70;99.90;;;;;;5059351;28;20052;-52
2023/07/27 01:07:46;;;;;;;7.80;2.20;;;18.60;99.90;;;;;;5070855;28;20047;-51
2023/07/27 01:11:05;;;;;;;8.93;2.03;;;18.70;99.90;;;;;;5061878;28;20064;-53
2023/07/27 01:14:25;;;;;;;5.95;2.10;;;18.70;99.90;;;;;;5067154;28;20399;-51
2023/07/27 01:17:44;;;;;;;8.65;2.00;;;18.60;99.90;;;;;;5071613;28;20047;-52
2023/07/27 01:21:16;;;;;;;9.60;1.88;;;18.60;99.90;;;;;;5071544;28;20047;-55
2023/07/27 01:25:05;;;;;;;7.63;1.65;;;18.30;99.90;;;;;;5070661;28;20051;-56
2023/07/27 01:28:46;;;;;;;6.43;2.03;;;18.10;99.90;;;;;;5069949;28;20064;-55
2023/07/27 01:31:51;;;;;;;7.05;1.80;;;18.00;99.90;;;;;;5070772;28;20036;-51
2023/07/27 01:34:59;;;;;;;10.77;2.10;;;17.90;99.90;;;;;;5070478;28;20399;-52
2023/07/27 01:38:05;;;;;;;8.48;2.78;;;17.80;99.90;;;;;;5069999;28;20047;-52
2023/07/27 01:41:11;;;;;;;6.55;2.10;;;17.80;99.90;;;;;;5070919;28;20048;-54
2023/07/27 01:44:16;;;;;;;8.70;2.03;;;17.80;99.90;;;;;;5069714;28;20407;-52
2023/07/27 01:47:22;;;;;;;6.72;2.88;;;17.70;99.90;;;;;;5069690;28;20518;-53
2023/07/27 01:50:28;;;;;;;5.20;2.17;;;17.60;99.90;;;;;;5070888;28;20044;-54
2023/07/27 01:53:34;;;;;;;8.13;2.30;;;17.50;99.90;;;;;;5070413;28;20047;-54
2023/07/27 01:56:39;;;;;;;8.63;2.80;;;17.40;99.90;;;;;;5069994;28;20067;-55
2023/07/27 01:59:45;;;;;;;10.43;2.55;;;17.30;99.90;;;;;;5069685;28;20686;-53
2023/07/27 02:02:50;;;;;;;10.27;2.70;;;17.30;99.90;;;;;;5069721;28;20051;-52
2023/07/27 02:05:54;;;;;;;11.02;3.03;;;17.30;99.90;;;;;;5070127;28;20048;-53
2023/07/27 02:08:59;;;;;;;12.60;3.03;;;17.20;99.90;;;;;;5069457;28;20154;-53
2023/07/27 02:12:26;;;;;;;14.07;2.83;;;17.30;99.90;;;;;;5069929;28;20055;-52
2023/07/27 02:15:36;;;;;;;7.90;2.72;;;17.30;99.90;;;;;;5069145;28;20510;-54
2023/07/27 02:18:43;;;;;;;10.88;2.75;;;17.30;99.90;;;;;;5069334;28;20040;-54
2023/07/27 02:21:48;;;;;;;10.43;3.40;;;17.30;99.90;;;;;;5069082;28;20407;-55
2023/07/27 02:24:52;;;;;;;12.93;2.70;;;17.30;99.90;;;;;;5069047;28;20093;-53
2023/07/27 02:27:56;;;;;;;13.82;3.00;;;17.30;99.90;;;;;;5069895;28;20051;-55
2023/07/27 02:31:01;;;;;;;10.40;2.45;;;17.30;99.90;;;;;;5069172;28;20399;-52
2023/07/27 02:34:05;;;;;;;11.05;3.00;;;17.30;99.90;;;;;;5068927;28;20502;-55
2023/07/27 02:37:11;;;;;;;18.77;3.78;;;17.30;99.90;;;;;;5068861;28;20407;-55
2023/07/27 02:40:16;;;;;;;11.80;3.42;;;17.30;99.90;;;;;;5069397;28;20525;-52
2023/07/27 02:43:21;;;;;;;14.02;3.42;;;17.40;99.90;;;;;;5068692;28;20043;-52
2023/07/27 02:46:26;;;;;;;16.60;2.90;;;17.40;99.90;;;;;;5068651;28;20039;-52
2023/07/27 02:49:30;;;;;;;14.48;2.90;;;17.40;99.90;;;;;;5049712;28;20043;-54
2023/07/27 02:52:35;;;;;;;10.88;2.97;;;17.40;99.90;;;;;;5037209;28;20044;-55
2023/07/27 02:55:41;;;;;;;12.18;2.92;;;17.30;99.90;;;;;;5025423;28;20070;-51
2023/07/27 02:58:46;;;;;;;11.70;2.75;;;17.40;99.90;;;;;;5037405;28;20040;-52
2023/07/27 03:01:51;;;;;;;8.93;2.92;;;17.40;99.90;;;;;;5037133;28;20048;-53
2023/07/27 03:05:04;;;;;;;14.88;3.28;;;17.40;99.90;;;;;;5037061;28;20535;-53
2023/07/27 03:08:08;;;;;;;12.25;3.20;;;17.50;99.90;;;;;;5036951;28;20052;-53
2023/07/27 03:11:15;;;;;;;10.70;2.90;;;17.40;99.90;;;;;;5037335;28;20407;-55
2023/07/27 03:14:20;;;;;;;5.97;2.80;;;17.50;99.90;;;;;;5037358;28;20037;-52
2023/07/27 03:17:24;;;;;;;6.13;2.65;;;17.50;99.90;;;;;;5037352;28;20060;-52
2023/07/27 03:20:29;;;;;;;11.13;3.13;;;17.50;99.90;;;;;;5049815;28;20050;-52
2023/07/27 03:23:33;;;;;;;9.27;2.85;;;17.50;99.90;;;;;;5049881;28;20052;-55
2023/07/27 03:26:38;;;;;;;8.52;2.70;;;17.50;99.90;;;;;;5049647;28;20048;-55
2023/07/27 03:29:43;;;;;;;14.25;3.70;;;17.50;99.90;;;;;;5049390;28;20408;-52
2023/07/27 03:32:49;;;;;;;12.85;3.60;;;17.50;99.90;;;;;;5049505;28;20052;-53
2023/07/27 03:35:53;;;;;;;11.57;2.20;;;17.40;99.90;;;;;;5049458;28;20060;-55
2023/07/27 03:38:57;;;;;;;9.15;2.38;;;17.40;99.90;;;;;;5049507;28;20072;-53
2023/07/27 03:42:01;;;;;;;9.40;2.95;;;17.50;99.90;;;;;;5037059;28;20056;-55
2023/07/27 03:45:07;;;;;;;9.45;2.45;;;17.50;99.90;;;;;;5037246;28;20052;-52
2023/07/27 03:48:11;;;;;;;7.30;2.30;;;17.40;99.90;;;;;;5036938;28;20408;-55
2023/07/27 03:51:15;;;;;;;10.88;3.40;;;17.40;99.90;;;;;;5052310;28;20505;-53
2023/07/27 03:54:20;;;;;;;8.05;2.47;;;17.40;99.90;;;;;;5053105;28;20055;-53
2023/07/27 03:57:24;;;;;;;9.65;2.58;;;17.40;99.90;;;;;;5040571;28;20055;-55
2023/07/27 04:00:29;;;;;;;10.80;3.45;;;17.40;99.90;;;;;;5040571;28;20052;-54
2023/07/27 04:03:33;;;;;;;8.55;2.28;;;17.40;99.90;;;;;;5041168;28;20067;-56
2023/07/27 04:06:37;;;;;;;10.45;3.20;;;17.40;99.90;;;;;;5052708;28;20043;-52
2023/07/27 04:09:43;;;;;;;11.45;2.50;;;17.30;99.90;;;;;;5052720;28;20466;-53
2023/07/27 04:12:47;;;;;;;7.65;2.00;;;17.20;99.90;;;;;;5052669;28;20047;-55
2023/07/27 04:15:52;;;;;;;10.68;2.40;;;17.20;99.90;;;;;;5040159;28;20040;-54
2023/07/27 04:18:56;;;;;;;9.52;2.35;;;17.20;99.90;;;;;;5040412;28;20458;-53
2023/07/27 04:22:00;;;;;;;5.78;2.28;;;17.20;99.90;;;;;;5052641;28;20047;-55
2023/07/27 04:25:04;;;;;;;7.95;2.53;;;17.10;99.90;;;;;;5052724;28;20056;-52
2023/07/27 04:28:08;;;;;;;11.48;3.72;;;16.80;99.90;;;;;;5052099;28;20642;-52
2023/07/27 04:31:13;;;;;;;11.65;3.70;;;16.40;99.90;;;;;;5052531;28;20415;-53
2023/07/27 04:34:17;;;;;;;11.63;3.38;;;16.40;99.90;;;;;;5040221;28;20048;-54
2023/07/27 04:37:21;;;;;;;7.18;2.58;;;16.40;99.90;;;;;;5051949;28;20055;-54
2023/07/27 04:40:27;;;;;;;8.90;2.60;;;16.40;99.90;;;;;;5052026;28;20044;-55
2023/07/27 04:43:32;;;;;;;14.43;3.38;;;16.40;99.90;;;;;;5051752;28;20044;-52
2023/07/27 04:46:35;;;;;;;11.43;2.95;;;16.60;99.90;;;;;;5051770;28;20052;-53
2023/07/27 04:49:39;;;;;;;11.63;2.50;;;16.70;99.90;;;;;;5051853;28;20044;-54
2023/07/27 04:52:43;;;;;;;10.80;2.83;;;17.00;99.90;;;;;;5039370;28;20120;-52
2023/07/27 04:55:49;;;;;;;8.57;2.42;;;19.10;99.90;;;;;;5051725;28;20499;-53
2023/07/27 04:58:53;;;;;;;7.85;2.08;;;21.60;99.90;;;;;;5051468;28;20061;-53
2023/07/27 05:01:56;;;;;;;5.95;1.95;;;23.50;99.90;;;;;;5052723;28;20518;-52
2023/07/27 05:05:01;;;;;;;7.10;1.88;;;24.80;99.90;;;;;;5071358;28;20043;-52
2023/07/27 05:08:05;;;;;;;8.35;2.63;;;25.90;99.90;;;;;;5070938;28;20518;-53
2023/07/27 05:11:10;;;;;;;7.03;2.03;;;26.50;99.90;;;;;;5071470;28;20051;-55
2023/07/27 05:14:17;;;;;;;7.57;2.08;;;26.50;99.90;;;;;;5071349;28;20035;-55
2023/07/27 05:17:20;;;;;;;6.95;1.90;;;27.10;99.90;;;;;;5070764;28;20506;-52
2023/07/27 05:20:24;;;;;;;8.75;2.10;;;27.70;99.90;;;;;;5071096;28;20051;-52
2023/07/27 05:23:28;;;;;;;6.22;2.30;;;27.80;99.90;;;;;;5071063;28;20650;-52
2023/07/27 05:26:32;;;;;;;7.40;2.20;;;27.70;99.90;;;;;;5071286;28;20052;-52
2023/07/27 05:29:36;;;;;;;10.25;2.28;;;27.60;99.90;;;;;;5070817;28;20051;-52
2023/07/27 05:32:40;;;;;;;7.90;2.65;;;27.20;99.90;;;;;;5071288;28;20246;-55
2023/07/27 05:35:48;;;;;;;5.00;1.77;;;27.60;99.90;;;;;;5070800;28;20043;-52
2023/07/27 05:38:54;;;;;;;6.50;1.98;;;27.30;99.90;;;;;;5070270;28;20047;-52
2023/07/27 05:41:59;;;;;;;4.20;1.73;;;27.00;99.90;;;;;;5070232;28;20048;-55
2023/07/27 05:45:04;;;;;;;6.65;1.67;;;26.80;99.90;;;;;;5070589;28;20054;-53
2023/07/27 05:48:08;;;;;;;6.63;2.30;;;27.80;99.90;;;;;;5070944;28;20052;-51
2023/07/27 05:51:12;;;;;;;5.47;2.25;;;26.10;99.90;;;;;;5070341;28;20037;-52
2023/07/27 05:54:16;;;;;;;8.50;2.08;;;26.00;99.90;;;;;;5070516;28;20052;-53
2023/07/27 05:57:22;;;;;;;9.40;2.10;;;25.40;99.90;;;;;;5062165;28;20055;-52
2023/07/27 06:00:26;;;;;;;8.20;2.40;;;24.90;99.90;;;;;;5072120;28;20502;-54
2023/07/27 06:03:34;;;;;;;12.18;2.58;;;24.00;99.90;;;;;;5067174;28;20510;-55
2023/07/27 06:06:38;;;;;;;7.75;1.95;;;24.50;99.90;;;;;;5070251;28;20075;-52
2023/07/27 06:09:42;;;;;;;7.30;2.50;;;26.60;99.90;;;;;;5069510;28;20047;-52
2023/07/27 06:12:46;;;;;;;5.82;2.50;;;28.30;99.90;;;;;;5070158;28;20055;-52
2023/07/27 06:15:50;;;;;;;5.30;1.85;;;29.10;99.90;;;;;;5065319;28;20055;-56
2023/07/27 06:18:54;;;;;;;8.02;2.30;;;29.80;99.90;;;;;;5057259;28;20051;-53
2023/07/27 06:21:58;;;;;;;5.50;2.00;;;30.50;98.90;;;;;;5069888;28;20071;-53
2023/07/27 06:25:03;;;;;;;7.30;2.03;;;31.10;97.90;;;;;;5070151;28;20051;-55
2023/07/27 06:28:07;;;;;;;5.22;1.95;;;31.40;97.10;;;;;;5074259;28;20047;-56
2023/07/27 06:31:11;;;;;;;11.65;1.88;;;31.80;96.10;;;;;;5069031;28;20047;-56
2023/07/27 06:34:16;;;;;;;9.10;1.98;;;31.20;95.60;;;;;;5068581;28;20059;-56
2023/07/27 06:37:20;;;;;;;5.97;2.42;;;30.20;96.40;;;;;;5061251;28;20051;-54
2023/07/27 06:40:24;;;;;;;5.88;1.95;;;29.70;97.10;;;;;;5061969;28;20506;-55
2023/07/27 06:43:28;;;;;;;5.05;1.83;;;29.40;97.20;;;;;;5057832;28;20036;-54
2023/07/27 06:46:32;;;;;;;4.35;1.50;;;28.50;98.10;;;;;;5065657;28;20035;-54
2023/07/27 06:49:36;;;;;;;6.68;1.90;;;28.60;97.90;;;;;;5060073;28;20048;-56
2023/07/27 06:52:40;;;;;;;5.70;2.20;;;30.10;97.50;;;;;;5063897;28;20035;-56
2023/07/27 06:55:44;;;;;;;4.85;2.00;;;31.10;95.90;;;;;;5061806;28;20044;-52
2023/07/27 06:58:48;;;;;;;5.75;1.90;;;29.80;96.30;;;;;;5063008;28;20032;-56
2023/07/27 07:01:54;;;;;;;7.32;2.10;;;30.50;96.50;;;;;;5063969;28;20055;-53
2023/07/27 07:05:00;;;;;;;3.63;1.73;;;31.10;95.80;;;;;;5065358;28;20044;-54
2023/07/27 07:08:04;;;;;;;4.68;1.80;;;32.00;94.80;;;;;;5065584;28;20051;-53
2023/07/27 07:11:09;;;;;;;4.60;2.00;;;32.00;94.30;;;;;;5064889;28;20518;-53
2023/07/27 07:14:13;;;;;;;7.63;1.92;;;31.80;94.00;;;;;;5071217;28;20044;-52
2023/07/27 07:17:17;;;;;;;6.45;1.60;;;31.80;94.00;;;;;;5064110;28;20466;-55
2023/07/27 07:20:22;;;;;;;7.10;1.45;;;32.10;93.70;;;;;;5058527;28;20046;-52
2023/07/27 07:23:26;;;;;;;4.63;1.83;;;31.90;94.10;;;;;;5064472;28;20036;-56
2023/07/27 07:26:30;;;;;;;4.53;1.60;;;33.20;93.40;;;;;;5064228;28;20530;-53
2023/07/27 07:29:34;;;;;;;2.88;1.60;;;32.90;92.80;;;;;;5068158;28;20514;-54
2023/07/27 07:32:38;;;;;;;6.07;2.00;;;30.90;93.70;;;;;;5063802;28;20397;-56
2023/07/27 07:35:43;;;;;;;3.20;1.45;;;31.40;93.70;;;;;;5068702;28;20039;-52
2023/07/27 07:38:49;;;;;;;6.40;1.48;;;31.90;93.20;;;;;;5068414;28;20502;-54
2023/07/27 07:41:53;;;;;;;6.32;1.65;;;33.60;92.50;;;;;;5055182;28;20051;-53
2023/07/27 07:44:59;;;;;;;8.48;1.95;;;34.80;91.70;;;;;;5067066;28;20051;-54
2023/07/27 07:48:04;;;;;;;4.07;1.70;;;34.70;90.90;;;;;;5070677;28;20048;-55
2023/07/27 07:51:12;;;;;;;4.10;1.63;;;34.10;91.30;;;;;;5069551;28;20048;-55
2023/07/27 07:54:16;;;;;;;8.40;1.80;;;34.90;91.10;;;;;;5071390;28;20047;-52
2023/07/27 07:57:21;;;;;;;6.20;1.75;;;33.70;91.60;;;;;;5070817;28;20129;-52
2023/07/27 08:00:27;;;;;;;2.50;1.45;;;32.80;91.90;;;;;;5064748;28;20502;-53
2023/07/27 08:03:31;;;;;;;4.25;1.58;;;32.20;91.20;;;;;;5072011;28;20044;-56
2023/07/27 08:06:36;;;;;;;3.47;1.85;;;33.40;91.00;;;;;;5067144;28;20402;-53
2023/07/27 08:09:41;;;;;;;5.45;1.70;;;34.90;89.90;;;;;;5070154;28;20048;-53
2023/07/27 08:12:45;;;;;;;3.47;1.60;;;36.50;88.40;;;;;;5071726;28;20123;-53
2023/07/27 08:15:53;;;;;;;3.30;1.27;;;37.40;84.80;;;;;;5064087;28;20514;-53
2023/07/27 08:18:58;;;;;;;3.97;1.55;;;37.80;83.70;;;;;;5068597;28;20051;-55
2023/07/27 08:22:05;;;;;;;4.40;1.40;;;34.90;84.00;;;;;;5062843;28;20052;-56
2023/07/27 08:25:09;;;;;;;5.07;1.65;;;32.90;86.70;;;;;;5052407;28;20526;-53
2023/07/27 08:28:14;;;;;;;3.42;1.35;;;35.40;86.00;;;;;;5057868;28;20039;-54
2023/07/27 08:31:18;;;;;;;2.00;1.00;;;37.60;83.60;;;;;;5060462;28;20051;-55
2023/07/27 08:34:22;;;;;;;6.00;1.48;;;35.90;81.10;;;;;;5052020;28;20044;-53
2023/07/27 08:37:27;;;;;;;4.20;1.20;;;35.50;81.80;;;;;;5068422;28;20035;-56
2023/07/27 08:40:31;;;;;;;3.35;1.30;;;35.20;83.20;;;;;;5070858;28;20043;-55
2023/07/27 08:43:35;;;;;;;2.58;1.10;;;36.80;82.00;;;;;;5071341;28;20039;-53
2023/07/27 08:46:41;;;;;;;2.70;1.13;;;38.40;80.90;;;;;;5059493;28;20048;-53
2023/07/27 08:49:46;;;;;;;2.88;1.20;;;38.40;79.90;;;;;;5066209;28;20039;-53
2023/07/27 08:52:50;;;;;;;3.28;1.30;;;38.30;80.20;;;;;;5070644;28;20036;-56
2023/07/27 08:55:54;;;;;;;3.00;1.20;;;39.00;77.60;;;;;;5070531;28;20051;-55
2023/07/27 08:59:00;;;;;;;5.78;1.20;;;38.60;78.10;;;;;;5051933;28;20048;-53
2023/07/27 09:02:05;;;;;;;3.45;1.20;;;38.40;77.90;;;;;;5068474;28;20043;-53
2023/07/27 09:05:12;;;;;;;4.25;1.48;;;40.10;76.90;;;;;;5063232;28;20052;-53
2023/07/27 09:08:17;;;;;;;3.25;1.10;;;38.00;76.80;;;;;;5065182;28;20048;-52
2023/07/27 09:11:21;;;;;;;6.72;1.00;;;38.00;76.90;;;;;;5069401;28;20060;-54
2023/07/27 09:14:25;;;;;;;2.15;1.33;;;40.20;74.70;;;;;;5063593;28;20043;-53
2023/07/27 09:17:31;;;;;;;2.28;1.20;;;42.40;71.70;;;;;;5070367;28;20051;-52
2023/07/27 09:20:35;;;;;;;3.95;1.10;;;42.40;70.30;;;;;;5068353;28;20486;-54
2023/07/27 09:23:39;;;;;;;2.13;1.30;;;42.90;70.10;;;;;;5056610;28;20503;-54
2023/07/27 09:26:48;;;;;;;5.90;1.55;;;42.90;68.70;;;;;;5063967;28;20047;-56
2023/07/27 09:29:58;;;;;;;2.30;1.00;;;42.90;68.70;;;;;;5066190;28;20044;-56
2023/07/27 09:33:04;;;;;;;4.05;1.30;;;44.40;67.40;;;;;;5066952;28;20512;-54
2023/07/27 09:36:12;;;;;;;1.90;1.02;;;45.30;65.80;;;;;;5075933;28;20047;-56
2023/07/27 09:39:15;;;;;;;5.50;1.25;;;44.40;65.60;;;;;;5070008;28;20052;-52
2023/07/27 09:42:20;;;;;;;5.15;1.70;;;43.40;65.20;;;;;;5063225;28;20060;-53
2023/07/27 09:45:24;;;;;;;3.10;1.20;;;40.70;68.20;;;;;;5064622;28;20051;-52
2023/07/27 09:48:29;;;;;;;2.35;1.10;;;41.90;65.70;;;;;;5055090;28;20059;-54
2023/07/27 09:51:33;;;;;;;2.40;1.10;;;41.50;65.20;;;;;;5061358;28;20044;-56
2023/07/27 09:54:39;;;;;;;1.85;1.08;;;40.70;63.70;;;;;;5064509;28;20044;-55
2023/07/27 09:57:45;;;;;;;3.05;1.10;;;41.60;64.90;;;;;;5066413;28;20044;-56
2023/07/27 10:00:49;;;;;;;2.47;1.15;;;42.70;64.50;;;;;;5063298;28;20518;-56
2023/07/27 10:03:59;;;;;;;3.75;1.17;;;43.90;63.20;;;;;;5065351;28;20522;-52
2023/07/27 10:07:05;;;;;;;8.10;1.15;;;44.30;61.80;;;;;;5053112;28;20066;-54
2023/07/27 10:10:31;;;;;;;3.38;0.95;;;42.00;63.30;;;;;;5052518;28;20048;-55
2023/07/27 10:13:43;;;;;;;1.08;0.98;;;43.00;63.20;;;;;;5065509;28;20035;-52
2023/07/27 10:17:07;;;;;;;1.58;1.00;;;45.30;58.80;;;;;;5064263;28;20530;-55
2023/07/27 10:20:31;;;;;;;1.55;1.13;;;45.60;59.20;;;;;;5053680;28;20039;-54
2023/07/27 10:23:36;;;;;;;3.60;1.55;;;46.40;57.60;;;;;;5066467;28;20047;-52
2023/07/27 10:26:44;;;;;;;2.55;1.30;;;46.20;55.30;;;;;;5065075;28;20031;-52
2023/07/27 10:30:15;;;;;;;2.05;1.40;;;44.90;57.10;;;;;;5066001;28;20044;-56
2023/07/27 10:33:26;;;;;;;2.95;1.20;;;45.00;56.00;;;;;;5061155;28;20039;-56
2023/07/27 10:36:56;;;;;;;2.50;1.30;;;42.90;53.80;;;;;;5062246;28;20031;-50
2023/07/27 10:40:02;;;;;;;4.20;1.27;;;41.30;55.10;;;;;;5068476;28;20059;-52
2023/07/27 10:43:06;;;;;;;1.65;1.17;;;38.60;59.60;;;;;;5064820;28;20051;-54
2023/07/27 10:46:21;;;;;;;3.80;1.20;;;38.70;59.70;;;;;;5065482;28;20055;-54
2023/07/27 10:49:25;;;;;;;1.92;1.38;;;40.00;58.90;;;;;;5061220;28;20043;-55
2023/07/27 10:52:33;;;;;;;2.10;1.50;;;36.90;64.00;;;;;;5062255;28;20043;-54
2023/07/27 10:55:38;;;;;;;2.65;1.10;;;37.70;62.40;;;;;;5062446;28;20498;-52
2023/07/27 10:58:44;;;;;;;3.25;1.30;;;40.50;59.50;;;;;;5068432;28;20043;-55
2023/07/27 11:01:50;;;;;;;1.90;1.20;;;41.00;58.50;;;;;;5055404;28;20047;-55
2023/07/27 11:04:56;;;;;;;3.30;1.10;;;42.20;58.30;;;;;;5062249;28;20102;-52
2023/07/27 11:08:02;;;;;;;4.38;1.50;;;41.30;57.00;;;;;;5054328;28;20052;-56
2023/07/27 11:11:20;;;;;;;4.35;1.25;;;43.70;58.00;;;;;;5066743;28;20048;-52
2023/07/27 11:14:25;;;;;;;1.83;1.17;;;45.50;56.50;;;;;;5059452;28;20040;-53
2023/07/27 11:17:34;;;;;;;4.40;1.38;;;44.50;55.30;;;;;;5064998;28;20040;-51
2023/07/27 11:20:41;;;;;;;2.13;1.20;;;45.40;56.30;;;;;;5057582;28;20051;-54
2023/07/27 11:23:47;;;;;;;1.45;1.02;;;45.00;55.70;;;;;;5057293;28;20051;-54
2023/07/27 11:26:51;;;;;;;2.55;1.15;;;42.60;57.30;;;;;;5055733;28;20039;-54
2023/07/27 11:29:59;;;;;;;1.88;1.23;;;42.30;57.40;;;;;;5057908;28;20047;-52
2023/07/27 11:33:04;;;;;;;3.45;1.17;;;41.80;57.40;;;;;;5067238;28;20064;-52
2023/07/27 11:36:10;;;;;;;3.28;1.30;;;42.60;56.40;;;;;;5067200;28;20502;-55
2023/07/27 11:39:15;;;;;;;3.92;1.40;;;44.10;57.10;;;;;;5067089;28;20040;-52
2023/07/27 11:42:30;;;;;;;2.75;1.00;;;45.40;56.30;;;;;;5066165;28;20051;-56
2023/07/27 11:45:35;;;;;;;1.40;0.98;;;45.30;56.10;;;;;;5062972;28;20036;-53
2023/07/27 11:48:41;;;;;;;2.30;1.10;;;40.90;56.00;;;;;;5067949;28;20403;-51
2023/07/27 11:51:46;;;;;;;2.20;1.20;;;37.30;60.90;;;;;;5055845;28;20043;-51
2023/07/27 11:54:52;;;;;;;3.30;1.15;;;40.00;60.40;;;;;;5068735;28;20044;-51
2023/07/27 11:57:56;;;;;;;3.40;1.50;;;41.80;57.70;;;;;;5058944;28;20039;-55
2023/07/27 12:01:03;;;;;;;3.15;1.63;;;43.60;57.80;;;;;;5064022;28;20047;-55
2023/07/27 12:04:07;;;;;;;3.28;1.30;;;44.70;57.20;;;;;;5060254;28;20039;-51
2023/07/27 12:07:11;;;;;;;2.33;1.27;;;44.60;56.10;;;;;;5066659;28;20415;-51
2023/07/27 12:10:16;;;;;;;2.60;1.50;;;44.80;56.30;;;;;;5065685;28;20115;-53
2023/07/27 12:13:22;;;;;;;3.72;1.08;;;45.20;56.60;;;;;;5058958;28;20052;-55
2023/07/27 12:16:26;;;;;;;3.65;1.50;;;44.90;57.50;;;;;;5067666;28;20044;-51
2023/07/27 12:19:30;;;;;;;1.70;1.45;;;40.60;59.20;;;;;;5067908;28;20048;-52
2023/07/27 12:22:34;;;;;;;3.45;1.30;;;39.80;59.90;;;;;;5063619;28;20044;-52
2023/07/27 12:25:38;;;;;;;4.28;1.70;;;39.30;61.30;;;;;;5050058;28;20039;-50
2023/07/27 12:28:43;;;;;;;3.95;1.60;;;39.20;60.10;;;;;;5056437;28;20059;-52
2023/07/27 12:31:47;;;;;;;4.75;1.48;;;38.60;60.90;;;;;;5068632;28;20048;-55
2023/07/27 12:34:51;;;;;;;3.40;1.75;;;39.20;61.60;;;;;;5070457;28;20375;-54
2023/07/27 12:37:57;;;;;;;4.63;1.77;;;39.90;60.90;;;;;;5061831;28;20099;-54
2023/07/27 12:41:02;;;;;;;1.50;1.05;;;41.20;61.10;;;;;;5067095;28;20411;-54
2023/07/27 12:44:08;;;;;;;5.43;1.58;;;41.60;60.50;;;;;;5064159;28;20035;-50
2023/07/27 12:47:12;;;;;;;1.70;1.17;;;40.70;59.60;;;;;;5070561;28;20372;-51
2023/07/27 12:50:16;;;;;;;3.13;1.45;;;40.90;60.20;;;;;;5071248;28;20403;-51
2023/07/27 12:53:21;;;;;;;5.47;1.42;;;41.10;61.20;;;;;;5070702;28;20044;-52
2023/07/27 12:56:24;;;;;;;3.55;1.60;;;41.00;61.90;;;;;;5070083;28;20502;-53
2023/07/27 12:59:29;;;;;;;4.28;1.75;;;40.40;61.00;;;;;;5066843;28;20044;-54
2023/07/27 13:02:33;;;;;;;1.98;1.33;;;39.10;60.10;;;;;;5069380;28;20043;-54
2023/07/27 13:05:37;;;;;;;3.80;1.50;;;38.20;60.90;;;;;;5056437;28;20039;-55
2023/07/27 13:08:43;;;;;;;3.15;1.30;;;38.30;61.50;;;;;;5069317;28;20048;-51
2023/07/27 13:11:48;;;;;;;4.10;1.40;;;38.40;62.20;;;;;;5069787;28;20039;-54
2023/07/27 13:14:51;;;;;;;2.60;1.27;;;39.00;61.80;;;;;;5070246;28;20047;-54
2023/07/27 13:18:01;;;;;;;2.63;1.50;;;39.30;62.70;;;;;;5069278;28;20051;-53
2023/07/27 13:21:05;;;;;;;2.17;1.27;;;40.00;62.00;;;;;;5068522;28;20044;-51
2023/07/27 13:24:10;;;;;;;2.72;1.70;;;39.50;62.30;;;;;;5060579;28;20403;-56
2023/07/27 13:27:14;;;;;;;3.42;1.65;;;39.00;62.50;;;;;;5068930;28;20536;-53
2023/07/27 13:30:19;;;;;;;3.72;1.52;;;38.60;62.40;;;;;;5071730;28;20047;-55
2023/07/27 13:33:23;;;;;;;3.05;1.67;;;38.50;62.80;;;;;;5061049;28;20399;-55
2023/07/27 13:36:27;;;;;;;3.30;1.38;;;38.40;62.20;;;;;;5068113;28;20043;-55
2023/07/27 13:39:31;;;;;;;6.53;1.88;;;38.80;62.30;;;;;;5065739;28;20047;-51
2023/07/27 13:42:35;;;;;;;4.97;1.58;;;38.30;63.60;;;;;;5064374;28;20047;-55
2023/07/27 13:45:39;;;;;;;4.65;1.70;;;38.00;63.60;;;;;;5050615;28;20056;-53
2023/07/27 13:48:44;;;;;;;2.67;1.55;;;38.20;62.80;;;;;;5065355;28;20039;-55
2023/07/27 13:51:48;;;;;;;5.47;1.60;;;38.30;62.10;;;;;;5070097;28;20122;-54
2023/07/27 13:54:52;;;;;;;3.00;1.60;;;38.10;61.50;;;;;;5070370;28;20067;-53
2023/07/27 13:57:57;;;;;;;3.17;1.70;;;37.30;61.30;;;;;;5071046;28;20059;-53
2023/07/27 14:01:01;;;;;;;6.50;1.95;;;37.20;61.80;;;;;;5070142;28;20051;-52
2023/07/27 14:04:04;;;;;;;4.05;1.55;;;36.50;63.60;;;;;;5070013;28;20052;-56
2023/07/27 14:07:09;;;;;;;8.13;1.70;;;36.30;63.90;;;;;;5070753;28;20043;-55
2023/07/27 14:10:14;;;;;;;4.90;1.77;;;35.80;63.00;;;;;;5069938;28;20509;-52
2023/07/27 14:13:18;;;;;;;5.80;1.50;;;35.30;64.00;;;;;;5070532;28;20043;-52
2023/07/27 14:16:22;;;;;;;3.85;1.83;;;35.60;64.70;;;;;;5070883;28;20047;-52
2023/07/27 14:19:27;;;;;;;7.38;1.95;;;35.30;63.80;;;;;;5069430;28;20039;-53
2023/07/27 14:22:35;;;;;;;3.65;2.00;;;35.10;64.30;;;;;;5070404;28;20063;-55
2023/07/27 14:25:39;;;;;;;3.53;1.80;;;34.70;64.70;;;;;;5070302;28;20510;-54
2023/07/27 14:28:43;;;;;;;2.60;1.58;;;34.50;66.20;;;;;;5065444;28;20129;-55
2023/07/27 14:31:47;;;;;;;4.03;1.58;;;34.20;65.50;;;;;;5067659;28;20039;-54
2023/07/27 14:34:52;;;;;;;4.43;1.95;;;33.60;67.80;;;;;;5069278;28;20502;-51
2023/07/27 14:37:56;;;;;;;3.60;1.70;;;33.10;67.00;;;;;;5069487;28;20047;-55
2023/07/27 14:41:00;;;;;;;3.30;1.60;;;33.20;67.30;;;;;;5069247;28;20039;-52
2023/07/27 14:44:04;;;;;;;3.35;1.60;;;33.60;67.10;;;;;;5069368;28;20039;-52
2023/07/27 14:47:09;;;;;;;8.20;2.53;;;34.10;67.40;;;;;;5070105;28;20043;-52
2023/07/27 14:50:14;;;;;;;25.85;3.33;;;33.70;68.50;;;;;;5069799;28;20051;-53
2023/07/27 14:53:18;;;;;;;5.13;1.63;;;34.10;68.50;;;;;;5062074;28;20046;-51
2023/07/27 14:56:24;;;;;;;12.15;2.22;;;34.00;69.10;;;;;;5070058;28;20051;-51
2023/07/27 14:59:29;;;;;;;9.10;2.03;;;33.50;70.20;;;;;;5069974;28;20051;-52
2023/07/27 15:02:33;;;;;;;9.00;2.20;;;33.50;69.40;;;;;;5068911;28;20051;-52
2023/07/27 15:05:38;;;;;;;4.72;1.77;;;33.90;70.40;;;;;;5067037;28;20055;-52
2023/07/27 15:08:43;;;;;;;9.35;2.35;;;34.10;69.30;;;;;;5068594;28;20051;-55
2023/07/27 15:11:47;;;;;;;6.72;1.70;;;34.10;69.50;;;;;;5068796;28;20047;-54
2023/07/27 15:14:53;;;;;;;9.93;2.30;;;34.00;69.50;;;;;;5069198;28;20043;-51
2023/07/27 15:17:57;;;;;;;4.65;2.00;;;33.40;70.50;;;;;;5069412;28;20055;-51
2023/07/27 15:21:02;;;;;;;8.68;1.90;;;33.10;70.40;;;;;;5049533;28;20052;-53
2023/07/27 15:24:10;;;;;;;4.50;2.00;;;33.00;71.50;;;;;;5050526;28;20036;-53
2023/07/27 15:27:14;;;;;;;5.07;1.50;;;33.00;72.00;;;;;;5068842;28;20039;-50
2023/07/27 15:30:19;;;;;;;5.57;1.80;;;33.00;72.30;;;;;;5068739;28;20075;-52
2023/07/27 15:33:25;;;;;;;4.78;2.08;;;33.00;72.70;;;;;;5056597;28;20036;-53
2023/07/27 15:36:29;;;;;;;4.15;1.60;;;32.80;72.40;;;;;;5068403;28;20039;-50
2023/07/27 15:39:33;;;;;;;4.47;1.83;;;32.70;72.60;;;;;;5067666;28;20059;-55
2023/07/27 15:42:37;;;;;;;3.75;1.73;;;32.80;72.70;;;;;;5068643;28;20494;-55
2023/07/27 15:45:41;;;;;;;6.43;1.95;;;33.10;72.10;;;;;;5068861;28;20051;-55
2023/07/27 15:48:45;;;;;;;6.75;1.92;;;33.40;71.30;;;;;;5069741;28;20411;-52
2023/07/27 15:51:49;;;;;;;5.25;1.70;;;33.70;70.90;;;;;;5069639;28;20395;-55
2023/07/27 15:54:54;;;;;;;3.20;1.48;;;33.90;70.30;;;;;;5070924;28;20510;-55
2023/07/27 15:57:57;;;;;;;3.50;1.70;;;34.10;69.90;;;;;;5072586;28;20039;-55
2023/07/27 16:01:01;;;;;;;5.65;2.05;;;34.20;70.10;;;;;;5072575;28;20043;-55
2023/07/27 16:04:05;;;;;;;5.68;2.03;;;34.30;70.30;;;;;;5072794;28;20043;-55